Timonium, Maryland
Current Conditions -  °F | °C
As of 4:45 PM on Wednesday 26 Nov 2014 (Local Time) from KMTN Reporting Station
Light Rain Light Rain  
Wind Chill: 30°   Ceiling: 1800
Heat Index: 37°   Visibility: 6mi
Dew Point: 36°   Wind: 10mph
Humidity: 93%   Direction: 310°NW
Pressure: 29.94"   Gusts: 16mph
Location:  39.4211°N, 76.6266°W
Report Text: KMTN 262145Z 31009G14KT 6SM -RA SCT013 OVC018 03/02 A2994
Loading
Personal Weather Stations






























Interactive Weather Map New forecast layout! Learn more

10-Day Weather Forecast

Advertisements
Track Severe Weather on mobile